createdAt,value
2022-12-23T00:01:45.964Z,9.02
2022-12-23T00:04:12.474Z,9.03
2022-12-23T00:06:39.037Z,9.04
2022-12-23T00:09:05.414Z,9.00
2022-12-23T00:11:31.851Z,8.95
2022-12-23T00:14:21.443Z,8.96
2022-12-23T00:16:50.346Z,8.95
2022-12-23T00:19:16.974Z,8.95
2022-12-23T00:21:43.386Z,8.94
2022-12-23T00:24:11.857Z,8.93
2022-12-23T00:26:39.463Z,8.92
2022-12-23T00:29:05.856Z,8.87
2022-12-23T00:31:32.361Z,8.91
2022-12-23T00:33:58.818Z,8.91
2022-12-23T00:36:28.450Z,8.89
2022-12-23T00:39:14.512Z,8.89
2022-12-23T00:42:00.412Z,8.86
2022-12-23T00:44:26.976Z,8.84
2022-12-23T00:46:53.869Z,8.81
2022-12-23T00:49:42.226Z,8.79
2022-12-23T00:52:15.550Z,8.80
2022-12-23T00:54:42.161Z,8.75
2022-12-23T00:57:08.608Z,8.77
2022-12-23T00:59:34.976Z,8.80
2022-12-23T01:02:21.206Z,8.75
2022-12-23T01:05:06.226Z,8.72
2022-12-23T01:07:32.638Z,8.67
2022-12-23T01:09:59.084Z,8.68
2022-12-23T01:12:25.488Z,8.72
2022-12-23T01:14:51.900Z,8.76
2022-12-23T01:17:18.620Z,8.73
2022-12-23T01:19:45.078Z,8.71
2022-12-23T01:22:11.494Z,8.73
2022-12-23T01:24:37.875Z,8.74
2022-12-23T01:27:04.312Z,8.79
2022-12-23T01:29:30.824Z,8.80
2022-12-23T01:31:57.391Z,8.82
2022-12-23T01:34:24.717Z,8.76
2022-12-23T01:36:51.413Z,8.73
2022-12-23T01:39:17.879Z,8.72
2022-12-23T01:42:03.016Z,8.73
2022-12-23T01:44:56.627Z,8.76
2022-12-23T01:47:51.418Z,8.75
2022-12-23T01:50:33.147Z,8.73
2022-12-23T01:53:19.768Z,8.72
2022-12-23T01:55:50.969Z,8.72
2022-12-23T01:58:22.784Z,8.63
2022-12-23T02:01:07.774Z,8.65
2022-12-23T02:03:43.839Z,8.60
2022-12-23T02:06:39.199Z,8.68
2022-12-23T02:09:33.079Z,8.58
2022-12-23T02:12:18.590Z,8.67
2022-12-23T02:15:29.359Z,8.75
2022-12-23T02:18:33.123Z,8.84
2022-12-23T02:21:23.262Z,8.86
2022-12-23T02:24:18.646Z,8.91
2022-12-23T02:27:25.185Z,8.98
2022-12-23T02:30:05.452Z,8.96
2022-12-23T02:32:38.542Z,9.00
2022-12-23T02:35:10.442Z,8.96
2022-12-23T02:37:49.214Z,9.03
2022-12-23T02:40:47.299Z,8.98
2022-12-23T02:43:19.381Z,8.96
2022-12-23T02:45:54.547Z,8.97
2022-12-23T02:48:34.843Z,8.96
2022-12-23T02:51:02.516Z,8.99
2022-12-23T02:53:33.758Z,9.01
2022-12-23T02:56:03.460Z,9.02
2022-12-23T02:58:36.073Z,9.01
2022-12-23T03:01:06.734Z,8.96
2022-12-23T03:03:35.738Z,8.92
2022-12-23T03:06:08.421Z,8.95
2022-12-23T03:08:44.596Z,8.95
2022-12-23T03:11:14.636Z,8.92
2022-12-23T03:14:10.280Z,8.92
2022-12-23T03:16:53.676Z,8.97
2022-12-23T03:19:35.530Z,8.97
2022-12-23T03:22:32.674Z,8.99
2022-12-23T03:25:21.567Z,9.06
2022-12-23T03:27:55.337Z,9.03
2022-12-23T03:30:23.150Z,9.03
2022-12-23T03:32:55.844Z,9.05
2022-12-23T03:35:36.139Z,9.05
2022-12-23T03:38:03.871Z,9.04
2022-12-23T03:40:37.958Z,8.99
2022-12-23T03:43:11.406Z,8.99
2022-12-23T03:45:46.182Z,9.09
2022-12-23T03:48:22.601Z,9.04
2022-12-23T03:50:54.047Z,9.06
2022-12-23T03:53:27.752Z,9.08
2022-12-23T03:55:56.164Z,9.07
2022-12-23T03:58:33.239Z,9.12
2022-12-23T04:01:11.828Z,9.08
2022-12-23T04:03:46.204Z,9.11
2022-12-23T04:06:17.824Z,9.13
2022-12-23T04:08:49.363Z,9.11
2022-12-23T04:11:15.881Z,9.14
2022-12-23T04:13:42.284Z,9.09
2022-12-23T04:16:08.971Z,9.08
2022-12-23T04:18:35.659Z,9.12
2022-12-23T04:21:02.209Z,9.08
2022-12-23T04:23:28.615Z,9.10
2022-12-23T04:25:55.003Z,9.07
2022-12-23T04:28:21.613Z,9.10
2022-12-23T04:30:47.987Z,9.10
2022-12-23T04:33:14.424Z,9.05
2022-12-23T04:35:40.830Z,9.14
2022-12-23T04:38:07.455Z,9.05
2022-12-23T04:40:33.872Z,9.11
2022-12-23T04:43:00.328Z,9.11
2022-12-23T04:45:26.717Z,9.10
2022-12-23T04:47:55.279Z,9.10
2022-12-23T04:50:21.864Z,9.05
2022-12-23T04:52:48.245Z,9.11
2022-12-23T04:55:14.657Z,9.13
2022-12-23T04:57:41.319Z,9.15
2022-12-23T05:00:08.867Z,9.01
2022-12-23T05:02:35.345Z,9.11
2022-12-23T05:05:01.908Z,9.13
2022-12-23T05:07:28.306Z,9.14
2022-12-23T05:09:54.697Z,9.07
2022-12-23T05:12:21.117Z,9.07
2022-12-23T05:14:47.535Z,9.09
2022-12-23T05:17:14.150Z,9.13
2022-12-23T05:19:40.726Z,9.12
2022-12-23T05:22:07.259Z,9.01
2022-12-23T05:24:33.711Z,9.07
2022-12-23T05:27:00.732Z,9.07
2022-12-23T05:29:27.606Z,9.09
2022-12-23T05:31:54.237Z,9.11
2022-12-23T05:34:20.892Z,9.06
2022-12-23T05:36:47.553Z,9.10
2022-12-23T05:39:13.976Z,9.12
2022-12-23T05:41:40.447Z,9.11
2022-12-23T05:44:06.899Z,9.11
2022-12-23T05:46:33.589Z,9.11
2022-12-23T05:49:00.146Z,9.14
2022-12-23T05:51:26.587Z,9.20
2022-12-23T05:53:52.989Z,9.13
2022-12-23T05:56:19.437Z,9.13
2022-12-23T05:58:45.995Z,9.13
2022-12-23T06:01:12.451Z,9.13
2022-12-23T06:03:39.262Z,9.04
2022-12-23T06:06:05.991Z,9.17
2022-12-23T06:08:32.442Z,9.21
2022-12-23T06:10:59.891Z,9.15
2022-12-23T06:13:26.432Z,9.18
2022-12-23T06:15:52.844Z,9.21
2022-12-23T06:18:20.678Z,9.22
2022-12-23T06:20:47.872Z,9.23
2022-12-23T06:23:14.415Z,9.24
2022-12-23T06:25:40.918Z,9.27
2022-12-23T06:28:08.018Z,9.36
2022-12-23T06:30:34.996Z,9.37
2022-12-23T06:33:01.444Z,9.33
2022-12-23T06:35:27.966Z,9.31
2022-12-23T06:37:54.553Z,9.30
2022-12-23T06:40:21.058Z,9.29
2022-12-23T06:42:47.737Z,9.31
2022-12-23T06:45:14.744Z,9.30
2022-12-23T06:47:41.214Z,9.31
2022-12-23T06:50:08.978Z,9.29
2022-12-23T06:52:35.565Z,9.32
2022-12-23T06:55:02.011Z,9.31
2022-12-23T06:57:28.626Z,9.30
2022-12-23T06:59:55.217Z,9.35
2022-12-23T07:02:21.684Z,9.37
2022-12-23T07:04:48.198Z,9.37
2022-12-23T07:07:14.637Z,9.31
2022-12-23T07:09:41.114Z,9.38
2022-12-23T07:12:07.541Z,9.30
2022-12-23T07:14:33.906Z,9.27
2022-12-23T07:17:00.379Z,9.28
2022-12-23T07:19:26.831Z,9.29
2022-12-23T07:21:53.249Z,9.19
2022-12-23T07:24:20.477Z,9.28
2022-12-23T07:26:47.049Z,9.22
2022-12-23T07:29:13.541Z,9.26
2022-12-23T07:31:41.228Z,9.33
2022-12-23T07:34:08.095Z,9.32
2022-12-23T07:36:35.247Z,9.26
2022-12-23T07:39:02.073Z,9.28
2022-12-23T07:41:28.655Z,9.31
2022-12-23T07:43:55.285Z,9.29
2022-12-23T07:46:21.754Z,9.25
2022-12-23T07:48:48.258Z,9.30
2022-12-23T07:51:14.730Z,9.22
2022-12-23T07:53:41.158Z,9.20
2022-12-23T07:56:08.095Z,9.24
2022-12-23T07:58:34.494Z,9.19
2022-12-23T08:01:02.911Z,9.17
2022-12-23T08:03:31.321Z,9.11
2022-12-23T08:06:02.446Z,9.11
2022-12-23T08:08:29.726Z,9.15
2022-12-23T08:11:04.930Z,9.21
2022-12-23T08:13:33.420Z,9.33
2022-12-23T08:16:01.267Z,9.52
2022-12-23T08:18:32.192Z,9.85
2022-12-23T08:21:01.481Z,10.32
2022-12-23T08:23:29.785Z,10.86
2022-12-23T08:25:59.389Z,11.22
2022-12-23T08:28:26.233Z,10.96
2022-12-23T08:30:52.788Z,10.54
2022-12-23T08:33:19.427Z,10.17
2022-12-23T08:35:45.835Z,10.09
2022-12-23T08:38:12.278Z,9.91
2022-12-23T08:40:41.749Z,10.12
2022-12-23T08:43:08.179Z,10.30
2022-12-23T08:45:39.479Z,10.01
2022-12-23T08:48:06.941Z,9.96
2022-12-23T08:50:39.093Z,9.98
2022-12-23T08:53:06.320Z,10.14
2022-12-23T08:55:44.894Z,10.08
2022-12-23T08:58:13.484Z,10.36
2022-12-23T09:00:41.211Z,10.44
2022-12-23T09:03:08.329Z,10.48
2022-12-23T09:05:40.794Z,10.32
2022-12-23T09:08:07.576Z,10.32
2022-12-23T09:10:34.794Z,10.46
2022-12-23T09:13:01.320Z,10.32
2022-12-23T09:15:27.767Z,10.19
2022-12-23T09:17:54.285Z,10.26
2022-12-23T09:20:20.930Z,10.18
2022-12-23T09:22:47.752Z,10.08
2022-12-23T09:25:15.666Z,10.09
2022-12-23T09:27:43.526Z,10.18
2022-12-23T09:30:10.752Z,10.22
2022-12-23T09:32:37.260Z,9.98
2022-12-23T09:35:03.928Z,10.10
2022-12-23T09:37:30.418Z,10.14
2022-12-23T09:39:56.931Z,9.96
2022-12-23T09:42:42.328Z,10.00
2022-12-23T09:45:13.265Z,10.14
2022-12-23T09:47:41.662Z,10.06
2022-12-23T09:50:23.667Z,10.18
2022-12-23T09:53:02.139Z,10.14
2022-12-23T09:55:37.073Z,10.17
2022-12-23T09:58:16.108Z,10.25
2022-12-23T10:00:55.616Z,10.34
2022-12-23T10:03:40.580Z,10.31
2022-12-23T10:06:22.959Z,10.28
2022-12-23T10:08:58.344Z,10.16
2022-12-23T10:11:46.856Z,10.31
2022-12-23T10:14:31.315Z,10.17
2022-12-23T10:17:05.976Z,10.31
2022-12-23T10:19:41.868Z,10.22
2022-12-23T10:22:25.071Z,10.23
2022-12-23T10:24:59.573Z,10.15
2022-12-23T10:27:39.918Z,10.24
2022-12-23T10:30:42.423Z,10.26
2022-12-23T10:33:22.021Z,10.32
2022-12-23T10:36:15.770Z,10.33
2022-12-23T10:38:59.166Z,10.31
2022-12-23T10:41:40.046Z,10.15
2022-12-23T10:44:31.509Z,10.28
2022-12-23T10:47:17.826Z,10.30
2022-12-23T10:50:11.113Z,10.24
2022-12-23T10:52:41.507Z,10.07
2022-12-23T10:55:31.298Z,10.19
2022-12-23T10:58:11.815Z,10.15
2022-12-23T11:00:41.764Z,10.10
2022-12-23T11:03:20.244Z,10.07
2022-12-23T11:05:49.997Z,10.15
2022-12-23T11:08:16.973Z,10.17
2022-12-23T11:10:43.480Z,10.19
2022-12-23T11:13:11.303Z,10.15
2022-12-23T11:15:40.931Z,10.11
2022-12-23T11:18:18.157Z,10.22
2022-12-23T11:21:01.057Z,10.31
2022-12-23T11:23:31.212Z,10.18
2022-12-23T11:26:09.781Z,10.14
2022-12-23T11:29:04.171Z,10.26
2022-12-23T11:31:35.494Z,10.29
2022-12-23T11:34:20.296Z,10.20
2022-12-23T11:36:58.727Z,10.25
2022-12-23T11:39:33.980Z,10.24
2022-12-23T11:42:15.786Z,10.16
2022-12-23T11:44:48.604Z,10.15
2022-12-23T11:47:19.402Z,10.31
2022-12-23T11:50:20.701Z,10.35
2022-12-23T11:53:01.265Z,10.30
2022-12-23T11:55:32.892Z,10.33
2022-12-23T11:58:01.930Z,10.28
2022-12-23T12:00:41.877Z,10.22
2022-12-23T12:03:18.376Z,10.23
2022-12-23T12:05:52.988Z,10.27
2022-12-23T12:08:24.486Z,10.11
2022-12-23T12:10:52.732Z,10.23
2022-12-23T12:13:31.568Z,10.39
2022-12-23T12:16:22.620Z,10.27
2022-12-23T12:18:55.512Z,10.35
2022-12-23T12:21:31.429Z,10.51
2022-12-23T12:24:18.446Z,10.21
2022-12-23T12:26:51.331Z,10.36
2022-12-23T12:29:33.336Z,10.31
2022-12-23T12:32:01.653Z,10.31
2022-12-23T12:34:51.870Z,10.43
2022-12-23T12:37:49.911Z,10.29
2022-12-23T12:40:38.699Z,10.26
2022-12-23T12:43:33.394Z,10.34
2022-12-23T12:46:06.541Z,10.48
2022-12-23T12:48:44.984Z,10.46
2022-12-23T12:51:37.985Z,10.39
2022-12-23T12:54:31.684Z,10.32
2022-12-23T12:56:59.259Z,10.35
2022-12-23T12:59:28.835Z,10.46
2022-12-23T13:02:28.384Z,10.41
2022-12-23T13:05:32.354Z,10.34
2022-12-23T13:08:32.591Z,10.22
2022-12-23T13:11:14.003Z,10.24
2022-12-23T13:14:05.613Z,10.15
2022-12-23T13:17:02.420Z,10.11
2022-12-23T13:19:42.364Z,10.17
2022-12-23T13:22:14.836Z,10.22
2022-12-23T13:24:57.908Z,10.08
2022-12-23T13:27:34.747Z,9.97
2022-12-23T13:30:03.496Z,10.08
2022-12-23T13:32:56.817Z,10.00
2022-12-23T13:35:48.871Z,10.08
2022-12-23T13:38:22.752Z,10.01
2022-12-23T13:41:02.041Z,10.07
2022-12-23T13:43:40.224Z,10.08
2022-12-23T13:46:21.961Z,10.05
2022-12-23T13:49:25.195Z,9.91
2022-12-23T13:52:11.551Z,10.02
2022-12-23T13:54:58.504Z,9.99
2022-12-23T13:57:35.458Z,10.03
2022-12-23T14:00:27.235Z,10.03
2022-12-23T14:03:02.874Z,10.03
2022-12-23T14:05:38.838Z,10.06
2022-12-23T14:08:28.063Z,10.17
2022-12-23T14:11:24.862Z,10.11
2022-12-23T14:13:51.195Z,9.94
2022-12-23T14:16:36.053Z,9.90
2022-12-23T14:19:18.618Z,10.00
2022-12-23T14:21:57.258Z,9.86
2022-12-23T14:24:45.454Z,9.91
2022-12-23T14:27:36.182Z,9.91
2022-12-23T14:30:12.957Z,9.84
2022-12-23T14:32:49.685Z,9.85
2022-12-23T14:35:47.104Z,9.81
2022-12-23T14:38:25.139Z,9.74
2022-12-23T14:41:18.091Z,9.79
2022-12-23T14:43:44.473Z,9.74
2022-12-23T14:46:50.613Z,9.76
2022-12-23T14:49:41.186Z,9.75
2022-12-23T14:52:39.324Z,9.57
2022-12-23T14:55:30.112Z,9.46
2022-12-23T14:58:17.757Z,9.50
2022-12-23T15:00:50.838Z,9.44
2022-12-23T15:03:20.383Z,9.34
2022-12-23T15:05:47.131Z,9.36
2022-12-23T15:08:24.527Z,9.34
2022-12-23T15:10:51.410Z,9.32
2022-12-23T15:13:19.253Z,9.27
2022-12-23T15:15:57.536Z,9.20
2022-12-23T15:18:28.437Z,9.15
2022-12-23T15:21:00.124Z,9.14
2022-12-23T15:23:26.685Z,9.15
2022-12-23T15:25:57.924Z,9.13
2022-12-23T15:28:39.083Z,9.14
2022-12-23T15:31:06.741Z,9.15
2022-12-23T15:36:31.914Z,9.14
2022-12-23T15:39:00.409Z,9.14
2022-12-23T15:41:27.128Z,9.10
2022-12-23T15:43:58.161Z,9.04
2022-12-23T15:46:29.643Z,9.07
2022-12-23T15:48:57.008Z,8.99
2022-12-23T15:52:07.061Z,8.96
2022-12-23T15:54:27.015Z,8.93
2022-12-23T15:56:56.155Z,9.02
2022-12-23T15:59:27.474Z,9.08
2022-12-23T16:01:55.385Z,9.08
2022-12-23T16:04:29.376Z,9.01
2022-12-23T16:06:56.440Z,9.03
2022-12-23T16:09:30.699Z,9.09
2022-12-23T16:12:22.219Z,9.10
2022-12-23T16:14:59.069Z,9.08
2022-12-23T16:17:35.059Z,8.99
2022-12-23T16:20:20.117Z,9.04
2022-12-23T16:22:49.137Z,9.04
2022-12-23T16:25:23.040Z,9.05
2022-12-23T16:28:02.645Z,8.98
2022-12-23T16:30:33.455Z,8.91
2022-12-23T16:33:02.465Z,8.87
2022-12-23T16:35:42.716Z,8.81
2022-12-23T16:38:13.663Z,8.78
2022-12-23T16:40:40.792Z,8.80
2022-12-23T16:43:07.719Z,8.77
2022-12-23T16:45:35.683Z,8.76
2022-12-23T16:48:09.288Z,8.68
2022-12-23T16:50:35.720Z,8.68
2022-12-23T16:53:03.055Z,8.73
2022-12-23T16:55:29.512Z,8.76
2022-12-23T16:57:55.964Z,8.73
2022-12-23T17:00:22.735Z,8.80
2022-12-23T17:02:49.661Z,8.85
2022-12-23T17:05:18.608Z,8.84
2022-12-23T17:07:45.940Z,8.78
2022-12-23T17:10:14.497Z,8.85
2022-12-23T17:12:41.902Z,8.82
2022-12-23T17:15:15.374Z,8.79
2022-12-23T17:17:41.828Z,8.72
2022-12-23T17:20:10.364Z,8.66
2022-12-23T17:22:37.674Z,8.87
2022-12-23T17:25:04.554Z,8.71
2022-12-23T17:27:30.947Z,8.69
2022-12-23T17:29:57.406Z,8.78
2022-12-23T17:32:24.388Z,8.76
2022-12-23T17:34:50.882Z,8.76
2022-12-23T17:37:19.796Z,8.86
2022-12-23T17:39:47.613Z,8.77
2022-12-23T17:42:23.326Z,8.93
2022-12-23T17:44:51.770Z,9.01
2022-12-23T17:47:20.855Z,9.01
2022-12-23T17:49:47.944Z,9.01
2022-12-23T17:52:19.812Z,9.09
2022-12-23T17:54:50.153Z,9.14
2022-12-23T17:57:19.741Z,9.25
2022-12-23T17:59:50.752Z,9.32
2022-12-23T18:02:35.421Z,9.54
2022-12-23T18:05:11.853Z,9.58
2022-12-23T18:07:38.330Z,9.66
2022-12-23T18:10:05.116Z,9.63
2022-12-23T18:12:37.404Z,9.64
2022-12-23T18:15:05.881Z,9.69
2022-12-23T18:17:32.301Z,9.74
2022-12-23T18:19:58.783Z,9.79
2022-12-23T18:22:27.309Z,9.87
2022-12-23T18:24:58.952Z,9.94
2022-12-23T18:27:26.074Z,9.88
2022-12-23T18:29:52.468Z,9.90
2022-12-23T18:32:25.114Z,9.83
2022-12-23T18:34:53.372Z,9.95
2022-12-23T18:37:20.423Z,9.92
2022-12-23T18:39:47.123Z,9.91
2022-12-23T18:42:15.571Z,9.94
2022-12-23T18:44:43.717Z,10.00
2022-12-23T18:47:10.725Z,10.12
2022-12-23T18:49:37.546Z,10.05
2022-12-23T18:52:07.662Z,10.00
2022-12-23T18:54:34.564Z,10.08
2022-12-23T18:57:01.746Z,10.09
2022-12-23T18:59:30.251Z,10.11
2022-12-23T19:01:58.323Z,10.18
2022-12-23T19:04:26.218Z,10.07
2022-12-23T19:06:52.638Z,10.20
2022-12-23T19:09:21.798Z,10.24
2022-12-23T19:11:50.772Z,10.29
2022-12-23T19:14:17.328Z,10.49
2022-12-23T19:16:50.849Z,10.40
2022-12-23T19:19:17.801Z,10.51
2022-12-23T19:21:44.196Z,10.52
2022-12-23T19:24:10.592Z,10.55
2022-12-23T19:26:37.141Z,10.54
2022-12-23T19:29:03.588Z,10.57
2022-12-23T19:31:30.131Z,10.67
2022-12-23T19:33:56.593Z,10.59
2022-12-23T19:36:23.447Z,10.73
2022-12-23T19:38:50.053Z,10.69
2022-12-23T19:41:16.723Z,10.81
2022-12-23T19:43:45.152Z,10.93
2022-12-23T19:46:12.948Z,10.81
2022-12-23T19:48:39.663Z,10.85
2022-12-23T19:51:11.870Z,10.93
2022-12-23T19:53:39.458Z,10.85
2022-12-23T19:56:10.615Z,10.84
2022-12-23T19:58:40.162Z,10.96
2022-12-23T20:01:18.990Z,10.91
2022-12-23T20:03:47.110Z,10.86
2022-12-23T20:06:17.128Z,10.92
2022-12-23T20:08:44.642Z,10.92
2022-12-23T20:11:14.324Z,10.94
2022-12-23T20:13:40.812Z,10.95
2022-12-23T20:16:07.953Z,10.91
2022-12-23T20:18:34.853Z,10.91
2022-12-23T20:21:02.263Z,10.89
2022-12-23T20:23:29.523Z,11.06
2022-12-23T20:25:56.072Z,11.15
2022-12-23T20:28:23.154Z,11.15
2022-12-23T20:30:58.887Z,11.28
2022-12-23T20:33:25.439Z,11.09
2022-12-23T20:35:51.797Z,11.10
2022-12-23T20:38:18.202Z,10.86
2022-12-23T20:40:44.992Z,10.82
2022-12-23T20:43:15.347Z,10.84
2022-12-23T20:45:42.981Z,10.79
2022-12-23T20:48:09.681Z,10.85
2022-12-23T20:50:43.081Z,10.98
2022-12-23T20:53:10.470Z,10.91
2022-12-23T20:55:36.868Z,10.81
2022-12-23T20:58:23.363Z,10.66
2022-12-23T21:00:50.360Z,10.73
2022-12-23T21:03:16.844Z,10.94
2022-12-23T21:05:45.291Z,10.90
2022-12-23T21:08:11.783Z,10.76
2022-12-23T21:10:39.427Z,10.76
2022-12-23T21:13:06.204Z,10.59
2022-12-23T21:15:32.750Z,10.78
2022-12-23T21:17:59.493Z,10.90
2022-12-23T21:20:26.535Z,10.79
2022-12-23T21:22:52.923Z,10.70
2022-12-23T21:25:19.318Z,10.67
2022-12-23T21:27:45.746Z,10.77
2022-12-23T21:30:12.323Z,10.73
2022-12-23T21:32:38.750Z,10.66
2022-12-23T21:35:05.565Z,10.68
2022-12-23T21:37:32.409Z,10.61
2022-12-23T21:39:58.779Z,10.85
2022-12-23T21:42:25.163Z,10.83
2022-12-23T21:44:52.552Z,10.72
2022-12-23T21:47:19.038Z,10.83
2022-12-23T21:49:45.402Z,10.90
2022-12-23T21:52:11.788Z,10.86
2022-12-23T21:54:38.278Z,10.76
2022-12-23T21:57:04.641Z,10.72
2022-12-23T21:59:35.158Z,10.78
2022-12-23T22:02:02.031Z,10.76
2022-12-23T22:04:28.606Z,10.78
2022-12-23T22:06:55.119Z,10.82
2022-12-23T22:09:21.576Z,10.71
2022-12-23T22:11:48.350Z,10.68
2022-12-23T22:14:17.422Z,10.71
2022-12-23T22:16:43.977Z,10.70
2022-12-23T22:19:11.825Z,10.65
2022-12-23T22:21:39.753Z,10.58
2022-12-23T22:24:08.175Z,10.61
2022-12-23T22:26:34.880Z,10.66
2022-12-23T22:29:05.328Z,10.63
2022-12-23T22:31:40.419Z,10.54
2022-12-23T22:34:08.426Z,10.66
2022-12-23T22:36:34.912Z,10.69
2022-12-23T22:39:03.353Z,10.69
2022-12-23T22:41:30.958Z,10.80
2022-12-23T22:43:58.553Z,10.72
2022-12-23T22:46:25.732Z,10.77
2022-12-23T22:48:52.793Z,10.58
2022-12-23T22:51:29.172Z,10.62
2022-12-23T22:53:56.440Z,10.64
2022-12-23T22:56:24.896Z,10.66
2022-12-23T22:58:52.536Z,10.57
2022-12-23T23:01:27.908Z,10.66
2022-12-23T23:03:58.433Z,10.62
2022-12-23T23:06:26.761Z,10.64
2022-12-23T23:08:54.557Z,10.76
2022-12-23T23:11:21.255Z,10.63
2022-12-23T23:13:47.846Z,10.60
2022-12-23T23:16:14.320Z,10.66
2022-12-23T23:18:41.257Z,10.49
2022-12-23T23:21:11.317Z,10.51
2022-12-23T23:23:38.020Z,10.54
2022-12-23T23:26:04.986Z,10.58
2022-12-23T23:28:31.607Z,10.59
2022-12-23T23:31:17.096Z,10.51
2022-12-23T23:33:44.886Z,10.58
2022-12-23T23:36:13.002Z,10.59
2022-12-23T23:38:39.426Z,10.55
2022-12-23T23:41:06.186Z,10.63
2022-12-23T23:43:33.195Z,10.73
2022-12-23T23:45:59.742Z,10.65
2022-12-23T23:48:26.275Z,10.65
2022-12-23T23:50:53.279Z,10.66
2022-12-23T23:53:19.714Z,10.66
2022-12-23T23:55:46.085Z,10.60
2022-12-23T23:58:12.915Z,10.67
